Time;durP1;ratioP1;P1;durP2;ratioP2;P2;SDS_P1;SDS_P2;PMS_P1;PMS_P2;Temp;Humidity;BMP_temperature;BMP_pressure;BME280_temperature;BME280_humidity;BME280_pressure;Samples;Min_cycle;Max_cycle;Signal;HPM_P1;HPM_P2
2021/01/29 14:59:35;;;;;;;3.80;3.50;;;1.10;99.90;;;;;;5101134;27;20268;-72
2021/01/29 15:02:07;;;;;;;5.20;3.90;;;1.10;99.90;;;;;;5102613;28;20777;-72
2021/01/29 15:04:36;;;;;;;3.87;3.50;;;1.10;99.90;;;;;;5106612;28;20188;-71
2021/01/29 15:07:07;;;;;;;4.00;3.60;;;1.10;99.90;;;;;;5114314;28;20198;-72
2021/01/29 15:09:53;;;;;;;4.10;3.63;;;1.10;99.90;;;;;;5114801;28;20202;-72
2021/01/29 15:12:20;;;;;;;5.00;4.50;;;1.10;99.90;;;;;;5111992;28;20819;-71
2021/01/29 15:14:53;;;;;;;5.30;4.40;;;1.10;99.90;;;;;;5110332;28;20282;-73
2021/01/29 15:17:29;;;;;;;4.23;3.83;;;1.20;99.90;;;;;;5109111;28;20651;-72
2021/01/29 15:20:29;;;;;;;3.57;3.27;;;1.10;99.90;;;;;;5110571;28;20206;-70
2021/01/29 15:23:14;;;;;;;3.57;3.20;;;1.10;99.90;;;;;;5110671;28;20179;-71
2021/01/29 15:25:52;;;;;;;3.57;3.27;;;1.10;99.90;;;;;;5092507;28;20512;-72
2021/01/29 15:28:31;;;;;;;3.70;3.17;;;1.10;99.90;;;;;;5099684;28;20181;-71
2021/01/29 15:31:10;;;;;;;7.77;7.07;;;1.10;99.90;;;;;;5108442;28;20168;-70
2021/01/29 15:33:39;;;;;;;5.30;4.30;;;1.10;99.90;;;;;;5112625;28;20198;-71
2021/01/29 15:36:21;;;;;;;6.03;4.20;;;1.00;99.90;;;;;;5116712;28;20181;-71
2021/01/29 15:38:52;;;;;;;7.50;5.47;;;1.00;99.90;;;;;;5121064;28;20180;-70
2021/01/29 15:41:37;;;;;;;6.43;5.73;;;1.00;99.90;;;;;;5123634;28;20179;-72
2021/01/29 15:44:05;;;;;;;6.43;4.87;;;1.10;99.90;;;;;;5126512;28;20191;-71
2021/01/29 15:46:55;;;;;;;5.73;4.93;;;1.10;99.90;;;;;;5127133;28;20172;-69
2021/01/29 15:49:20;;;;;;;6.27;5.43;;;1.10;99.90;;;;;;5114605;28;20175;-59
2021/01/29 15:51:45;;;;;;;5.77;5.17;;;1.10;99.90;;;;;;5106739;28;20176;-61
2021/01/29 15:54:33;;;;;;;4.37;3.97;;;1.10;99.90;;;;;;5107750;28;20196;-60
2021/01/29 15:57:01;;;;;;;4.50;3.73;;;1.10;99.90;;;;;;5107109;28;20178;-60
2021/01/29 15:59:33;;;;;;;7.63;5.53;;;1.10;99.90;;;;;;5107703;28;20168;-67
2021/01/29 16:02:08;;;;;;;7.97;6.53;;;1.10;99.90;;;;;;5108245;28;20195;-70
2021/01/29 16:04:44;;;;;;;8.37;5.30;;;1.10;99.90;;;;;;5108990;28;20245;-71
2021/01/29 16:07:12;;;;;;;6.03;4.13;;;1.10;99.90;;;;;;5087604;28;20180;-71
2021/01/29 16:09:44;;;;;;;8.30;7.50;;;1.10;99.90;;;;;;5079417;28;20278;-70
2021/01/29 16:12:48;;;;;;;5.97;5.40;;;1.10;99.90;;;;;;5074075;28;20170;-73
2021/01/29 16:15:32;;;;;;;6.53;4.23;;;1.10;99.90;;;;;;5074158;28;20192;-72
2021/01/29 16:18:08;;;;;;;4.33;3.87;;;1.10;99.90;;;;;;5073094;28;20200;-67
2021/01/29 16:20:40;;;;;;;5.77;5.23;;;1.10;99.90;;;;;;5072682;28;20157;-73
2021/01/29 16:23:14;;;;;;;5.57;5.03;;;1.10;99.90;;;;;;5074688;28;20193;-74
2021/01/29 16:25:40;;;;;;;6.43;4.93;;;1.00;99.90;;;;;;5074438;28;20239;-74
2021/01/29 16:28:10;;;;;;;7.43;6.80;;;1.10;99.90;;;;;;5075682;28;20374;-73
2021/01/29 16:30:38;;;;;;;7.27;6.53;;;1.00;99.90;;;;;;5073768;28;20521;-72
2021/01/29 16:33:11;;;;;;;8.00;6.70;;;1.00;99.90;;;;;;5072322;28;20201;-73
2021/01/29 16:35:50;;;;;;;6.70;5.80;;;1.00;99.90;;;;;;5077957;28;20184;-73
2021/01/29 16:38:30;;;;;;;8.50;6.27;;;1.10;99.90;;;;;;5083448;28;20283;-72
2021/01/29 16:40:57;;;;;;;8.20;6.80;;;1.20;99.90;;;;;;5073602;28;20206;-73
2021/01/29 16:43:30;;;;;;;6.07;5.47;;;1.20;99.90;;;;;;5072421;28;20782;-74
2021/01/29 16:45:59;;;;;;;4.90;4.10;;;1.20;99.90;;;;;;5074324;28;20165;-74
2021/01/29 16:48:27;;;;;;;5.80;4.90;;;1.10;99.90;;;;;;5074264;28;20184;-74
2021/01/29 16:51:16;;;;;;;6.10;5.50;;;1.20;99.90;;;;;;5073596;28;20172;-59
2021/01/29 16:53:43;;;;;;;7.03;5.47;;;1.20;99.90;;;;;;5072174;28;20197;-60
2021/01/29 16:56:26;;;;;;;7.77;6.60;;;1.20;99.90;;;;;;5073366;28;20170;-65
2021/01/29 16:59:05;;;;;;;6.43;5.83;;;1.20;99.90;;;;;;5078354;28;20212;-74
2021/01/29 17:01:35;;;;;;;4.80;4.40;;;1.30;99.90;;;;;;5076380;28;20169;-74
2021/01/29 17:04:04;;;;;;;5.23;4.40;;;1.30;99.90;;;;;;5077324;28;20660;-72
2021/01/29 17:06:41;;;;;;;5.27;4.53;;;1.30;99.90;;;;;;5075809;28;20486;-73
2021/01/29 17:09:18;;;;;;;6.20;4.97;;;1.30;99.90;;;;;;5078601;28;20168;-73
2021/01/29 17:11:44;;;;;;;5.13;4.63;;;1.30;99.90;;;;;;5073730;28;20176;-73
2021/01/29 17:14:24;;;;;;;4.97;4.47;;;1.30;99.90;;;;;;5075772;28;20229;-73
2021/01/29 17:16:53;;;;;;;6.80;5.80;;;1.30;99.90;;;;;;5077038;28;20188;-72
2021/01/29 17:19:24;;;;;;;6.33;5.73;;;1.30;99.90;;;;;;5072681;28;20177;-73
2021/01/29 17:22:26;;;;;;;4.13;3.67;;;1.30;99.90;;;;;;5076349;28;20223;-72
2021/01/29 17:25:05;;;;;;;5.60;4.57;;;1.40;99.90;;;;;;5074167;28;20193;-73
2021/01/29 17:27:31;;;;;;;5.20;4.70;;;1.40;99.90;;;;;;5073210;28;20180;-73
2021/01/29 17:30:07;;;;;;;4.13;3.73;;;1.40;99.90;;;;;;5071386;28;20185;-74
2021/01/29 17:32:34;;;;;;;4.10;3.67;;;1.40;99.90;;;;;;5078331;28;20301;-73
2021/01/29 17:35:07;;;;;;;5.80;4.80;;;1.30;99.90;;;;;;5085246;28;20201;-74
2021/01/29 17:37:33;;;;;;;4.73;4.23;;;1.30;99.90;;;;;;5082273;28;20189;-73
2021/01/29 17:39:59;;;;;;;5.13;4.40;;;1.30;99.90;;;;;;5077028;28;20165;-72
2021/01/29 17:42:33;;;;;;;4.93;3.90;;;1.30;99.90;;;;;;5071614;28;20268;-72
2021/01/29 17:45:04;;;;;;;4.93;3.90;;;1.40;99.90;;;;;;5072740;28;20200;-72
2021/01/29 17:47:40;;;;;;;4.50;4.10;;;1.40;99.90;;;;;;5075191;28;20180;-72
2021/01/29 17:50:20;;;;;;;8.97;6.57;;;1.40;99.90;;;;;;5080776;28;20173;-74
2021/01/29 17:52:48;;;;;;;6.53;5.80;;;1.40;99.90;;;;;;5074241;28;20169;-72
2021/01/29 17:55:42;;;;;;;4.63;4.23;;;1.50;99.90;;;;;;5076328;28;20176;-73
2021/01/29 17:58:17;;;;;;;11.60;8.77;;;1.50;99.90;;;;;;5073119;28;20200;-72
2021/01/29 18:01:09;;;;;;;4.90;4.50;;;1.50;99.90;;;;;;5077740;28;20195;-73
2021/01/29 18:04:00;;;;;;;5.17;4.73;;;1.60;99.90;;;;;;5086306;28;20185;-73
2021/01/29 18:06:37;;;;;;;6.80;5.53;;;1.60;99.90;;;;;;5090327;28;20177;-73
2021/01/29 18:09:15;;;;;;;4.73;4.33;;;1.70;99.90;;;;;;5084986;28;20169;-73
2021/01/29 18:11:54;;;;;;;4.93;4.50;;;1.70;99.90;;;;;;5077212;28;20172;-72
2021/01/29 18:14:23;;;;;;;4.07;3.67;;;1.70;99.90;;;;;;5076364;28;20184;-73
2021/01/29 18:16:49;;;;;;;4.90;4.37;;;1.70;99.90;;;;;;5077628;28;20176;-72
2021/01/29 18:19:16;;;;;;;7.13;4.80;;;1.70;99.90;;;;;;5075522;28;20177;-72
2021/01/29 18:21:43;;;;;;;4.87;4.37;;;1.70;99.90;;;;;;5073275;28;20214;-72
2021/01/29 18:24:18;;;;;;;4.73;4.17;;;1.70;99.90;;;;;;5074172;28;20561;-72
2021/01/29 18:26:44;;;;;;;5.03;4.53;;;1.70;99.90;;;;;;5073785;28;20212;-71
2021/01/29 18:29:11;;;;;;;4.90;4.43;;;1.70;99.90;;;;;;5073009;28;20173;-73
2021/01/29 18:31:40;;;;;;;5.63;5.13;;;1.80;99.90;;;;;;5071320;28;20249;-74
2021/01/29 18:34:11;;;;;;;4.37;3.97;;;1.80;99.90;;;;;;5072573;28;20284;-74
2021/01/29 18:36:37;;;;;;;5.17;4.67;;;1.70;99.90;;;;;;5089446;28;20172;-74
2021/01/29 18:39:07;;;;;;;5.23;4.73;;;1.70;99.90;;;;;;5082908;28;20193;-73
2021/01/29 18:41:34;;;;;;;4.20;3.80;;;1.70;99.90;;;;;;5072471;28;20231;-61
2021/01/29 18:44:01;;;;;;;5.60;4.27;;;1.70;99.90;;;;;;5070229;28;20291;-60
2021/01/29 18:46:27;;;;;;;5.50;5.00;;;1.70;99.90;;;;;;5070971;28;20216;-72
2021/01/29 18:48:53;;;;;;;5.17;4.23;;;1.70;99.90;;;;;;5077085;28;20181;-73
2021/01/29 18:51:19;;;;;;;4.90;4.40;;;1.80;99.90;;;;;;5072290;28;20268;-73
2021/01/29 18:53:45;;;;;;;4.87;4.17;;;1.80;99.90;;;;;;5073926;28;20217;-74
2021/01/29 18:56:10;;;;;;;5.17;4.10;;;1.80;99.90;;;;;;5082086;28;20203;-71
2021/01/29 18:58:36;;;;;;;7.03;4.50;;;1.80;99.90;;;;;;5087058;28;20280;-73
2021/01/29 19:01:02;;;;;;;5.80;3.83;;;1.70;99.90;;;;;;5073889;28;20181;-71
2021/01/29 19:03:29;;;;;;;4.63;4.23;;;1.70;99.90;;;;;;5075505;28;20701;-73
2021/01/29 19:05:54;;;;;;;6.63;4.50;;;1.70;99.90;;;;;;5073540;28;20238;-73
2021/01/29 19:08:20;;;;;;;6.70;5.47;;;1.80;99.90;;;;;;5075276;28;20173;-74
2021/01/29 19:10:45;;;;;;;5.73;4.53;;;1.80;99.90;;;;;;5073922;28;20169;-72
2021/01/29 19:13:11;;;;;;;5.87;5.20;;;1.80;99.90;;;;;;5073039;28;20193;-72
2021/01/29 19:15:37;;;;;;;5.43;4.93;;;1.80;99.90;;;;;;5072634;28;20234;-73
2021/01/29 19:18:03;;;;;;;4.87;4.30;;;1.90;99.90;;;;;;5073183;28;20205;-73
2021/01/29 19:20:30;;;;;;;5.20;4.40;;;1.80;99.90;;;;;;5072712;28;20169;-74
2021/01/29 19:22:57;;;;;;;4.63;4.10;;;1.80;99.90;;;;;;5075934;28;20663;-72
2021/01/29 19:25:25;;;;;;;5.27;4.77;;;1.90;99.90;;;;;;5078515;28;20679;-73
2021/01/29 19:27:51;;;;;;;5.73;5.20;;;1.90;99.90;;;;;;5079267;28;20193;-73
2021/01/29 19:30:21;;;;;;;5.73;5.10;;;1.90;99.90;;;;;;5075997;28;20194;-73
2021/01/29 19:32:47;;;;;;;3.80;3.50;;;1.90;99.90;;;;;;5075043;28;20277;-72
2021/01/29 19:35:15;;;;;;;5.53;4.90;;;1.90;99.90;;;;;;5074912;28;20713;-73
2021/01/29 19:37:42;;;;;;;4.00;3.70;;;1.90;99.90;;;;;;5076008;28;20197;-72
2021/01/29 19:40:09;;;;;;;6.53;5.77;;;1.90;99.90;;;;;;5077460;28;20200;-74
2021/01/29 19:42:35;;;;;;;5.00;4.50;;;1.90;99.90;;;;;;5077337;28;20169;-71
2021/01/29 19:45:01;;;;;;;4.37;3.90;;;2.00;99.90;;;;;;5079215;28;20214;-73
2021/01/29 19:47:26;;;;;;;4.77;4.23;;;2.00;99.90;;;;;;5077247;28;20252;-72
2021/01/29 19:49:52;;;;;;;5.07;4.07;;;2.00;99.90;;;;;;5083879;28;20740;-72
2021/01/29 19:52:18;;;;;;;4.63;4.20;;;2.00;99.90;;;;;;5077522;28;20250;-72
2021/01/29 19:54:44;;;;;;;3.97;3.60;;;1.90;99.90;;;;;;5079015;28;20193;-71
2021/01/29 19:57:11;;;;;;;5.83;4.83;;;1.90;99.90;;;;;;5081212;28;20295;-69
2021/01/29 19:59:41;;;;;;;5.67;5.00;;;1.90;99.90;;;;;;5097082;28;20168;-70
2021/01/29 20:02:08;;;;;;;4.97;4.30;;;1.80;99.90;;;;;;5094544;28;20588;-70
2021/01/29 20:04:34;;;;;;;6.07;4.13;;;1.70;99.90;;;;;;5096758;28;20223;-72
2021/01/29 20:07:00;;;;;;;7.00;5.13;;;1.70;99.90;;;;;;5098156;28;20799;-66
2021/01/29 20:09:26;;;;;;;6.87;5.73;;;1.60;99.90;;;;;;5095074;28;20579;-66
2021/01/29 20:11:52;;;;;;;4.93;4.47;;;1.60;99.90;;;;;;5094671;28;20252;-69
